sensor_id;sensor_type;location;lat;lon;timestamp;pressure;altitude;pressure_sealevel;temperature;humidity
63111;BME280;49201;53.426;10.300;2023-04-19T00:01:12;103233.75;;;6.14;100.00
63111;BME280;49201;53.426;10.300;2023-04-19T00:03:41;103236.03;;;6.11;100.00
63111;BME280;49201;53.426;10.300;2023-04-19T00:06:09;103246.13;;;6.09;100.00
63111;BME280;49201;53.426;10.300;2023-04-19T00:08:43;103226.53;;;6.08;100.00
63111;BME280;49201;53.426;10.300;2023-04-19T00:11:12;103222.75;;;6.03;100.00
63111;BME280;49201;53.426;10.300;2023-04-19T00:13:40;103219.22;;;6.01;100.00
63111;BME280;49201;53.426;10.300;2023-04-19T00:16:06;103215.78;;;6.01;100.00
63111;BME280;49201;53.426;10.300;2023-04-19T00:18:35;103202.22;;;6.00;100.00
63111;BME280;49201;53.426;10.300;2023-04-19T00:21:15;103192.69;;;5.98;100.00
63111;BME280;49201;53.426;10.300;2023-04-19T00:23:47;103198.84;;;5.90;100.00
63111;BME280;49201;53.426;10.300;2023-04-19T00:26:15;103199.25;;;5.84;100.00
63111;BME280;49201;53.426;10.300;2023-04-19T00:28:46;103201.03;;;5.85;100.00
63111;BME280;49201;53.426;10.300;2023-04-19T00:31:18;103186.78;;;5.87;100.00
63111;BME280;49201;53.426;10.300;2023-04-19T00:33:48;103188.09;;;5.82;100.00
63111;BME280;49201;53.426;10.300;2023-04-19T00:36:19;103186.66;;;5.86;100.00
63111;BME280;49201;53.426;10.300;2023-04-19T00:38:50;103190.25;;;5.78;100.00
63111;BME280;49201;53.426;10.300;2023-04-19T00:41:21;103184.16;;;5.76;100.00
63111;BME280;49201;53.426;10.300;2023-04-19T00:43:49;103190.91;;;5.75;100.00
63111;BME280;49201;53.426;10.300;2023-04-19T00:46:20;103185.59;;;5.72;100.00
63111;BME280;49201;53.426;10.300;2023-04-19T00:48:47;103190.44;;;5.69;100.00
63111;BME280;49201;53.426;10.300;2023-04-19T00:51:16;103197.81;;;5.66;100.00
63111;BME280;49201;53.426;10.300;2023-04-19T00:53:42;103192.84;;;5.68;100.00
63111;BME280;49201;53.426;10.300;2023-04-19T00:56:12;103201.22;;;5.55;100.00
63111;BME280;49201;53.426;10.300;2023-04-19T00:58:39;103209.88;;;5.47;100.00
63111;BME280;49201;53.426;10.300;2023-04-19T01:01:08;103226.81;;;5.37;100.00
63111;BME280;49201;53.426;10.300;2023-04-19T01:03:37;103216.13;;;5.41;100.00
63111;BME280;49201;53.426;10.300;2023-04-19T01:06:03;103210.41;;;5.43;100.00
63111;BME280;49201;53.426;10.300;2023-04-19T01:08:34;103210.94;;;5.39;100.00
63111;BME280;49201;53.426;10.300;2023-04-19T01:11:00;103206.75;;;5.40;100.00
63111;BME280;49201;53.426;10.300;2023-04-19T01:13:31;103198.34;;;5.41;100.00
63111;BME280;49201;53.426;10.300;2023-04-19T01:16:00;103199.78;;;5.37;100.00
63111;BME280;49201;53.426;10.300;2023-04-19T01:18:30;103197.75;;;5.33;100.00
63111;BME280;49201;53.426;10.300;2023-04-19T01:21:03;103191.13;;;5.35;100.00
63111;BME280;49201;53.426;10.300;2023-04-19T01:23:31;103196.88;;;5.33;100.00
63111;BME280;49201;53.426;10.300;2023-04-19T01:26:00;103195.88;;;5.31;100.00
63111;BME280;49201;53.426;10.300;2023-04-19T01:28:30;103188.91;;;5.28;100.00
63111;BME280;49201;53.426;10.300;2023-04-19T01:30:56;103185.47;;;5.28;100.00
63111;BME280;49201;53.426;10.300;2023-04-19T01:33:25;103175.94;;;5.25;100.00
63111;BME280;49201;53.426;10.300;2023-04-19T01:35:53;103172.75;;;5.28;100.00
63111;BME280;49201;53.426;10.300;2023-04-19T01:38:19;103172.56;;;5.25;100.00
63111;BME280;49201;53.426;10.300;2023-04-19T01:40:52;103162.25;;;5.23;100.00
63111;BME280;49201;53.426;10.300;2023-04-19T01:43:23;103165.66;;;5.24;100.00
63111;BME280;49201;53.426;10.300;2023-04-19T01:45:49;103159.59;;;5.22;100.00
63111;BME280;49201;53.426;10.300;2023-04-19T01:48:17;103158.69;;;5.21;100.00
63111;BME280;49201;53.426;10.300;2023-04-19T01:50:46;103141.31;;;5.26;100.00
63111;BME280;49201;53.426;10.300;2023-04-19T01:53:12;103155.41;;;5.22;100.00
63111;BME280;49201;53.426;10.300;2023-04-19T01:55:41;103150.34;;;5.22;100.00
63111;BME280;49201;53.426;10.300;2023-04-19T01:58:07;103148.53;;;5.21;100.00
63111;BME280;49201;53.426;10.300;2023-04-19T02:00:35;103148.19;;;5.17;100.00
63111;BME280;49201;53.426;10.300;2023-04-19T02:03:05;103158.34;;;5.17;100.00
63111;BME280;49201;53.426;10.300;2023-04-19T02:05:37;103151.72;;;5.19;100.00
63111;BME280;49201;53.426;10.300;2023-04-19T02:08:06;103164.22;;;5.16;100.00
63111;BME280;49201;53.426;10.300;2023-04-19T02:10:32;103170.06;;;5.15;100.00
63111;BME280;49201;53.426;10.300;2023-04-19T02:13:01;103167.41;;;5.13;100.00
63111;BME280;49201;53.426;10.300;2023-04-19T02:15:35;103170.59;;;5.11;100.00
63111;BME280;49201;53.426;10.300;2023-04-19T02:18:07;103181.88;;;5.14;100.00
63111;BME280;49201;53.426;10.300;2023-04-19T02:20:32;103183.28;;;5.11;100.00
63111;BME280;49201;53.426;10.300;2023-04-19T02:22:58;103181.09;;;5.15;100.00
63111;BME280;49201;53.426;10.300;2023-04-19T02:25:26;103185.81;;;5.11;100.00
63111;BME280;49201;53.426;10.300;2023-04-19T02:27:52;103198.91;;;5.05;100.00
63111;BME280;49201;53.426;10.300;2023-04-19T02:30:18;103201.44;;;5.05;100.00
63111;BME280;49201;53.426;10.300;2023-04-19T02:32:47;103207.34;;;4.94;100.00
63111;BME280;49201;53.426;10.300;2023-04-19T02:35:16;103202.34;;;4.96;100.00
63111;BME280;49201;53.426;10.300;2023-04-19T02:37:45;103210.41;;;4.90;100.00
63111;BME280;49201;53.426;10.300;2023-04-19T02:40:17;103214.31;;;4.87;100.00
63111;BME280;49201;53.426;10.300;2023-04-19T02:42:43;103208.72;;;4.91;100.00
63111;BME280;49201;53.426;10.300;2023-04-19T02:45:08;103213.69;;;4.89;100.00
63111;BME280;49201;53.426;10.300;2023-04-19T02:47:34;103207.97;;;4.82;100.00
63111;BME280;49201;53.426;10.300;2023-04-19T02:50:04;103207.97;;;4.82;100.00
63111;BME280;49201;53.426;10.300;2023-04-19T02:52:33;103196.84;;;4.80;100.00
63111;BME280;49201;53.426;10.300;2023-04-19T02:54:59;103201.66;;;4.77;100.00
63111;BME280;49201;53.426;10.300;2023-04-19T02:57:28;103204.72;;;4.73;100.00
63111;BME280;49201;53.426;10.300;2023-04-19T02:59:54;103211.44;;;4.72;100.00
63111;BME280;49201;53.426;10.300;2023-04-19T03:02:24;103198.63;;;4.71;100.00
63111;BME280;49201;53.426;10.300;2023-04-19T03:04:58;103190.25;;;4.72;100.00
63111;BME280;49201;53.426;10.300;2023-04-19T03:07:27;103185.59;;;4.66;100.00
63111;BME280;49201;53.426;10.300;2023-04-19T03:10:00;103182.41;;;4.69;100.00
63111;BME280;49201;53.426;10.300;2023-04-19T03:12:28;103167.06;;;4.67;100.00
63111;BME280;49201;53.426;10.300;2023-04-19T03:14:54;103174.44;;;4.64;100.00
63111;BME280;49201;53.426;10.300;2023-04-19T03:17:24;103175.97;;;4.62;100.00
63111;BME280;49201;53.426;10.300;2023-04-19T03:19:53;103173.03;;;4.58;100.00
63111;BME280;49201;53.426;10.300;2023-04-19T03:22:19;103162.03;;;4.57;100.00
63111;BME280;49201;53.426;10.300;2023-04-19T03:24:48;103161.38;;;4.60;100.00
63111;BME280;49201;53.426;10.300;2023-04-19T03:27:20;103167.59;;;4.63;100.00
63111;BME280;49201;53.426;10.300;2023-04-19T03:29:55;103161.88;;;4.66;100.00
63111;BME280;49201;53.426;10.300;2023-04-19T03:32:21;103159.72;;;4.60;100.00
63111;BME280;49201;53.426;10.300;2023-04-19T03:34:48;103152.09;;;4.60;100.00
63111;BME280;49201;53.426;10.300;2023-04-19T03:37:14;103152.53;;;4.55;100.00
63111;BME280;49201;53.426;10.300;2023-04-19T03:39:49;103150.97;;;4.57;100.00
63111;BME280;49201;53.426;10.300;2023-04-19T03:42:25;103155.66;;;4.52;100.00
63111;BME280;49201;53.426;10.300;2023-04-19T03:44:57;103150.59;;;4.52;100.00
63111;BME280;49201;53.426;10.300;2023-04-19T03:47:25;103144.66;;;4.52;100.00
63111;BME280;49201;53.426;10.300;2023-04-19T03:49:56;103149.25;;;4.46;100.00
63111;BME280;49201;53.426;10.300;2023-04-19T03:52:24;103147.09;;;4.40;100.00
63111;BME280;49201;53.426;10.300;2023-04-19T03:54:50;103144.28;;;4.37;100.00
63111;BME280;49201;53.426;10.300;2023-04-19T03:57:33;103141.63;;;4.36;100.00
63111;BME280;49201;53.426;10.300;2023-04-19T04:00:04;103141.78;;;4.27;100.00
63111;BME280;49201;53.426;10.300;2023-04-19T04:02:44;103148.78;;;4.20;100.00
63111;BME280;49201;53.426;10.300;2023-04-19T04:05:12;103141.28;;;4.21;100.00
63111;BME280;49201;53.426;10.300;2023-04-19T04:07:41;103138.88;;;4.13;100.00
63111;BME280;49201;53.426;10.300;2023-04-19T04:10:13;103134.72;;;4.13;100.00
63111;BME280;49201;53.426;10.300;2023-04-19T04:12:42;103128.66;;;4.11;100.00
63111;BME280;49201;53.426;10.300;2023-04-19T04:15:12;103130.78;;;4.17;100.00
63111;BME280;49201;53.426;10.300;2023-04-19T04:17:49;103133.16;;;4.15;100.00
63111;BME280;49201;53.426;10.300;2023-04-19T04:20:15;103128.38;;;4.18;100.00
63111;BME280;49201;53.426;10.300;2023-04-19T04:22:41;103133.72;;;4.11;100.00
63111;BME280;49201;53.426;10.300;2023-04-19T04:25:09;103133.81;;;4.13;100.00
63111;BME280;49201;53.426;10.300;2023-04-19T04:27:41;103132.69;;;4.09;100.00
63111;BME280;49201;53.426;10.300;2023-04-19T04:30:12;103133.97;;;4.04;100.00
63111;BME280;49201;53.426;10.300;2023-04-19T04:32:42;103129.50;;;4.12;100.00
63111;BME280;49201;53.426;10.300;2023-04-19T04:35:10;103127.50;;;4.18;100.00
63111;BME280;49201;53.426;10.300;2023-04-19T04:37:52;103128.97;;;4.26;100.00
63111;BME280;49201;53.426;10.300;2023-04-19T04:40:24;103125.56;;;4.35;100.00
63111;BME280;49201;53.426;10.300;2023-04-19T04:42:51;103128.94;;;4.36;100.00
63111;BME280;49201;53.426;10.300;2023-04-19T04:45:19;103120.97;;;4.41;100.00
63111;BME280;49201;53.426;10.300;2023-04-19T04:47:44;103131.50;;;4.46;100.00
63111;BME280;49201;53.426;10.300;2023-04-19T04:50:12;103123.97;;;4.47;100.00
63111;BME280;49201;53.426;10.300;2023-04-19T04:52:43;103125.38;;;4.54;100.00
63111;BME280;49201;53.426;10.300;2023-04-19T04:55:12;103132.19;;;4.65;100.00
63111;BME280;49201;53.426;10.300;2023-04-19T04:57:44;103133.31;;;4.68;100.00
63111;BME280;49201;53.426;10.300;2023-04-19T05:42:37;103041.19;;;7.06;100.00
63111;BME280;49201;53.426;10.300;2023-04-19T05:45:03;103032.59;;;7.17;100.00
63111;BME280;49201;53.426;10.300;2023-04-19T05:47:30;102989.91;;;7.26;100.00
63111;BME280;49201;53.426;10.300;2023-04-19T05:50:14;102995.03;;;7.39;100.00
63111;BME280;49201;53.426;10.300;2023-04-19T05:52:47;102996.50;;;7.49;100.00
63111;BME280;49201;53.426;10.300;2023-04-19T05:55:13;102968.28;;;7.59;100.00
63111;BME280;49201;53.426;10.300;2023-04-19T05:57:42;102946.47;;;7.75;100.00
63111;BME280;49201;53.426;10.300;2023-04-19T06:00:08;102937.81;;;7.86;100.00
63111;BME280;49201;53.426;10.300;2023-04-19T06:02:43;102897.97;;;8.01;100.00
63111;BME280;49201;53.426;10.300;2023-04-19T06:05:11;102875.78;;;8.13;100.00
63111;BME280;49201;53.426;10.300;2023-04-19T06:07:37;102844.88;;;8.22;100.00
63111;BME280;49201;53.426;10.300;2023-04-19T06:10:03;102849.56;;;8.29;100.00
63111;BME280;49201;53.426;10.300;2023-04-19T06:12:29;102836.19;;;8.33;100.00
63111;BME280;49201;53.426;10.300;2023-04-19T06:14:54;102806.59;;;8.49;100.00
63111;BME280;49201;53.426;10.300;2023-04-19T06:17:20;102814.16;;;8.62;100.00
63111;BME280;49201;53.426;10.300;2023-04-19T06:19:50;102778.94;;;8.71;100.00
63111;BME280;49201;53.426;10.300;2023-04-19T06:22:15;102762.66;;;8.84;100.00
63111;BME280;49201;53.426;10.300;2023-04-19T06:24:40;102737.47;;;8.90;100.00
63111;BME280;49201;53.426;10.300;2023-04-19T06:27:08;102715.31;;;9.05;100.00
63111;BME280;49201;53.426;10.300;2023-04-19T06:29:33;102703.94;;;9.14;100.00
63111;BME280;49201;53.426;10.300;2023-04-19T06:31:59;102666.56;;;9.16;100.00
63111;BME280;49201;53.426;10.300;2023-04-19T06:34:24;102639.19;;;9.30;100.00
63111;BME280;49201;53.426;10.300;2023-04-19T06:36:50;102646.69;;;9.43;100.00
63111;BME280;49201;53.426;10.300;2023-04-19T06:39:15;102648.28;;;9.57;100.00
63111;BME280;49201;53.426;10.300;2023-04-19T06:41:40;102641.56;;;9.75;100.00
63111;BME280;49201;53.426;10.300;2023-04-19T06:44:06;102606.47;;;9.72;100.00
63111;BME280;49201;53.426;10.300;2023-04-19T06:46:31;102582.09;;;9.79;100.00
63111;BME280;49201;53.426;10.300;2023-04-19T06:48:57;102561.06;;;9.84;100.00
63111;BME280;49201;53.426;10.300;2023-04-19T06:51:22;102537.75;;;9.96;100.00
63111;BME280;49201;53.426;10.300;2023-04-19T06:53:48;102523.09;;;10.09;100.00
63111;BME280;49201;53.426;10.300;2023-04-19T06:56:15;102526.47;;;10.26;100.00
63111;BME280;49201;53.426;10.300;2023-04-19T06:58:40;102500.97;;;10.46;100.00
63111;BME280;49201;53.426;10.300;2023-04-19T07:01:06;102465.06;;;10.45;100.00
63111;BME280;49201;53.426;10.300;2023-04-19T07:03:31;102476.22;;;10.64;100.00
63111;BME280;49201;53.426;10.300;2023-04-19T07:05:57;102415.47;;;10.62;97.51
63111;BME280;49201;53.426;10.300;2023-04-19T07:08:23;102403.47;;;10.61;97.21
63111;BME280;49201;53.426;10.300;2023-04-19T07:10:49;102424.78;;;10.98;100.00
63111;BME280;49201;53.426;10.300;2023-04-19T07:13:14;102429.63;;;11.11;98.47
63111;BME280;49201;53.426;10.300;2023-04-19T07:15:40;102401.97;;;11.24;95.73
63111;BME280;49201;53.426;10.300;2023-04-19T07:18:05;102389.16;;;11.45;95.01
63111;BME280;49201;53.426;10.300;2023-04-19T07:20:31;102341.94;;;11.40;87.75
63111;BME280;49201;53.426;10.300;2023-04-19T07:22:57;102349.25;;;11.51;87.69
63111;BME280;49201;53.426;10.300;2023-04-19T07:25:23;102368.84;;;11.70;91.13
63111;BME280;49201;53.426;10.300;2023-04-19T07:27:48;102348.66;;;11.79;87.23
63111;BME280;49201;53.426;10.300;2023-04-19T07:30:14;102353.28;;;12.09;89.10
63111;BME280;49201;53.426;10.300;2023-04-19T07:32:39;102344.59;;;12.29;85.44
63111;BME280;49201;53.426;10.300;2023-04-19T07:35:05;102272.94;;;12.13;75.00
63111;BME280;49201;53.426;10.300;2023-04-19T07:37:31;102242.91;;;12.34;72.72
63111;BME280;49201;53.426;10.300;2023-04-19T07:39:56;102242.00;;;12.34;71.78
63111;BME280;49201;53.426;10.300;2023-04-19T07:42:23;102200.91;;;12.34;67.79
63111;BME280;49201;53.426;10.300;2023-04-19T07:44:49;102221.50;;;12.59;69.18
63111;BME280;49201;53.426;10.300;2023-04-19T07:47:15;102247.66;;;12.98;69.42
63111;BME280;49201;53.426;10.300;2023-04-19T07:49:40;102228.25;;;12.82;68.49
63111;BME280;49201;53.426;10.300;2023-04-19T07:52:06;102237.84;;;13.13;67.01
63111;BME280;49201;53.426;10.300;2023-04-19T07:54:32;102247.53;;;13.21;65.74
63111;BME280;49201;53.426;10.300;2023-04-19T07:56:57;102270.53;;;13.43;65.26
63111;BME280;49201;53.426;10.300;2023-04-19T07:59:23;102300.09;;;13.84;68.19
63111;BME280;49201;53.426;10.300;2023-04-19T08:01:49;102310.22;;;13.78;66.73
63111;BME280;49201;53.426;10.300;2023-04-19T08:04:14;102250.91;;;13.75;58.62
63111;BME280;49201;53.426;10.300;2023-04-19T08:06:42;102283.63;;;13.79;60.24
63111;BME280;49201;53.426;10.300;2023-04-19T08:09:07;102272.38;;;14.05;59.48
63111;BME280;49201;53.426;10.300;2023-04-19T08:11:33;102288.69;;;14.04;56.18
63111;BME280;49201;53.426;10.300;2023-04-19T08:13:58;102330.03;;;14.38;56.85
63111;BME280;49201;53.426;10.300;2023-04-19T08:16:23;102289.81;;;14.43;52.51
63111;BME280;49201;53.426;10.300;2023-04-19T08:18:49;102295.34;;;14.56;50.65
63111;BME280;49201;53.426;10.300;2023-04-19T08:21:16;102345.59;;;14.72;52.04
63111;BME280;49201;53.426;10.300;2023-04-19T08:23:42;102342.94;;;14.69;50.92
63111;BME280;49201;53.426;10.300;2023-04-19T08:26:07;102359.56;;;14.49;51.17
63111;BME280;49201;53.426;10.300;2023-04-19T08:28:33;102361.13;;;14.44;50.04
63111;BME280;49201;53.426;10.300;2023-04-19T08:30:58;102368.06;;;14.76;51.04
63111;BME280;49201;53.426;10.300;2023-04-19T08:33:24;102362.59;;;14.65;49.83
63111;BME280;49201;53.426;10.300;2023-04-19T08:35:49;102349.69;;;14.64;47.67
63111;BME280;49201;53.426;10.300;2023-04-19T08:38:15;102369.22;;;14.87;47.67
63111;BME280;49201;53.426;10.300;2023-04-19T08:40:46;102386.59;;;15.26;47.16
63111;BME280;49201;53.426;10.300;2023-04-19T08:43:15;102355.06;;;15.36;45.75
63111;BME280;49201;53.426;10.300;2023-04-19T08:45:45;102401.66;;;15.10;46.41
63111;BME280;49201;53.426;10.300;2023-04-19T08:48:12;102440.88;;;15.29;47.09
63111;BME280;49201;53.426;10.300;2023-04-19T08:50:40;102402.59;;;15.46;45.85
63111;BME280;49201;53.426;10.300;2023-04-19T08:53:09;102430.53;;;15.60;47.14
63111;BME280;49201;53.426;10.300;2023-04-19T08:55:40;102393.09;;;15.80;45.20
63111;BME280;49201;53.426;10.300;2023-04-19T08:58:05;102407.28;;;15.97;44.92
63111;BME280;49201;53.426;10.300;2023-04-19T09:00:32;102426.34;;;16.02;45.00
63111;BME280;49201;53.426;10.300;2023-04-19T09:02:58;102379.28;;;16.15;41.10
63111;BME280;49201;53.426;10.300;2023-04-19T09:05:24;102441.63;;;16.30;42.41
63111;BME280;49201;53.426;10.300;2023-04-19T09:07:49;102601.25;;;16.03;41.42
63111;BME280;49201;53.426;10.300;2023-04-19T09:10:19;102651.78;;;16.57;43.52
63111;BME280;49201;53.426;10.300;2023-04-19T09:13:04;102603.34;;;16.52;40.34
63111;BME280;49201;53.426;10.300;2023-04-19T09:15:40;102624.78;;;16.46;40.34
63111;BME280;49201;53.426;10.300;2023-04-19T09:18:08;102648.66;;;16.36;41.68
63111;BME280;49201;53.426;10.300;2023-04-19T09:20:41;102650.38;;;16.71;41.86
63111;BME280;49201;53.426;10.300;2023-04-19T09:23:10;102632.63;;;16.17;40.81
63111;BME280;49201;53.426;10.300;2023-04-19T09:25:37;102624.34;;;16.64;40.92
63111;BME280;49201;53.426;10.300;2023-04-19T09:28:13;102648.91;;;16.81;42.38
63111;BME280;49201;53.426;10.300;2023-04-19T09:30:40;102602.03;;;16.69;40.25
63111;BME280;49201;53.426;10.300;2023-04-19T09:33:06;102624.34;;;17.01;40.52
63111;BME280;49201;53.426;10.300;2023-04-19T09:35:42;102630.84;;;16.82;40.80
63111;BME280;49201;53.426;10.300;2023-04-19T09:38:09;102609.59;;;16.98;40.18
63111;BME280;49201;53.426;10.300;2023-04-19T09:40:35;102594.78;;;16.91;38.27
63111;BME280;49201;53.426;10.300;2023-04-19T09:43:01;102640.34;;;17.23;39.81
63111;BME280;49201;53.426;10.300;2023-04-19T09:45:27;102625.88;;;17.73;38.91
63111;BME280;49201;53.426;10.300;2023-04-19T09:48:04;102631.66;;;17.60;39.62
63111;BME280;49201;53.426;10.300;2023-04-19T09:50:31;102631.09;;;17.76;39.73
63111;BME280;49201;53.426;10.300;2023-04-19T09:52:57;102605.97;;;16.90;37.23
63111;BME280;49201;53.426;10.300;2023-04-19T09:55:24;102631.81;;;17.27;37.20
63111;BME280;49201;53.426;10.300;2023-04-19T09:57:51;102604.63;;;17.07;35.98
63111;BME280;49201;53.426;10.300;2023-04-19T10:00:18;102603.19;;;16.80;35.44
63111;BME280;49201;53.426;10.300;2023-04-19T10:02:46;102623.59;;;17.06;35.97
63111;BME280;49201;53.426;10.300;2023-04-19T10:05:20;102617.09;;;16.85;35.80
63111;BME280;49201;53.426;10.300;2023-04-19T10:07:49;102634.34;;;17.24;36.20
63111;BME280;49201;53.426;10.300;2023-04-19T10:10:17;102605.75;;;17.20;35.38
63111;BME280;49201;53.426;10.300;2023-04-19T10:12:47;102618.16;;;17.34;35.44
63111;BME280;49201;53.426;10.300;2023-04-19T10:15:13;102619.03;;;17.36;35.23
63111;BME280;49201;53.426;10.300;2023-04-19T10:17:40;102616.34;;;17.30;34.65
63111;BME280;49201;53.426;10.300;2023-04-19T10:20:09;102577.16;;;17.14;33.41
63111;BME280;49201;53.426;10.300;2023-04-19T10:22:35;102619.16;;;17.39;35.03
63111;BME280;49201;53.426;10.300;2023-04-19T10:25:27;102589.63;;;17.33;34.29
63111;BME280;49201;53.426;10.300;2023-04-19T10:27:54;102614.63;;;17.31;34.23
63111;BME280;49201;53.426;10.300;2023-04-19T10:30:22;102638.69;;;17.25;34.72
63111;BME280;49201;53.426;10.300;2023-04-19T10:32:54;102615.56;;;17.34;34.66
63111;BME280;49201;53.426;10.300;2023-04-19T10:35:25;102624.03;;;17.67;34.01
63111;BME280;49201;53.426;10.300;2023-04-19T10:38:13;102593.09;;;17.33;33.37
63111;BME280;49201;53.426;10.300;2023-04-19T10:40:54;102640.63;;;17.78;34.71
63111;BME280;49201;53.426;10.300;2023-04-19T10:45:51;102611.59;;;17.50;34.18
63111;BME280;49201;53.426;10.300;2023-04-19T10:51:01;102597.06;;;18.05;32.74
63111;BME280;49201;53.426;10.300;2023-04-19T10:53:48;102600.06;;;18.29;33.35
63111;BME280;49201;53.426;10.300;2023-04-19T11:01:50;102583.88;;;17.92;31.73
63111;BME280;49201;53.426;10.300;2023-04-19T11:07:05;102590.53;;;17.78;31.39
63111;BME280;49201;53.426;10.300;2023-04-19T11:09:36;102602.31;;;17.61;32.88
63111;BME280;49201;53.426;10.300;2023-04-19T11:12:05;102652.66;;;18.21;34.48
63111;BME280;49201;53.426;10.300;2023-04-19T11:14:36;102593.84;;;17.71;31.90
63111;BME280;49201;53.426;10.300;2023-04-19T11:17:22;102601.44;;;17.62;32.89
63111;BME280;49201;53.426;10.300;2023-04-19T11:20:03;102596.59;;;17.35;32.11
63111;BME280;49201;53.426;10.300;2023-04-19T11:22:35;102608.16;;;17.51;33.81
63111;BME280;49201;53.426;10.300;2023-04-19T11:27:34;102590.25;;;17.63;32.76
63111;BME280;49201;53.426;10.300;2023-04-19T11:30:11;102577.41;;;16.86;33.03
63111;BME280;49201;53.426;10.300;2023-04-19T11:32:43;102588.47;;;17.59;33.35
63111;BME280;49201;53.426;10.300;2023-04-19T11:35:09;102546.06;;;17.54;31.87
63111;BME280;49201;53.426;10.300;2023-04-19T11:37:35;102552.94;;;17.53;31.74
63111;BME280;49201;53.426;10.300;2023-04-19T11:40:01;102569.88;;;17.82;33.15
63111;BME280;49201;53.426;10.300;2023-04-19T11:42:26;102536.81;;;17.69;31.27
63111;BME280;49201;53.426;10.300;2023-04-19T11:44:53;102541.44;;;17.39;31.24
63111;BME280;49201;53.426;10.300;2023-04-19T11:47:21;102592.16;;;17.71;32.47
63111;BME280;49201;53.426;10.300;2023-04-19T11:49:47;102589.00;;;17.89;32.69
63111;BME280;49201;53.426;10.300;2023-04-19T11:52:20;102566.50;;;17.86;32.33
63111;BME280;49201;53.426;10.300;2023-04-19T11:54:46;102577.28;;;18.10;32.68
63111;BME280;49201;53.426;10.300;2023-04-19T11:57:12;102573.19;;;18.23;33.17
63111;BME280;49201;53.426;10.300;2023-04-19T11:59:38;102543.28;;;17.45;31.17
63111;BME280;49201;53.426;10.300;2023-04-19T12:02:12;102546.41;;;17.30;31.37
63111;BME280;49201;53.426;10.300;2023-04-19T12:04:38;102559.25;;;17.67;32.12
63111;BME280;49201;53.426;10.300;2023-04-19T12:07:05;102567.09;;;17.70;32.51
63111;BME280;49201;53.426;10.300;2023-04-19T12:09:34;102570.88;;;17.43;32.67
63111;BME280;49201;53.426;10.300;2023-04-19T12:12:01;102549.97;;;17.35;31.39
63111;BME280;49201;53.426;10.300;2023-04-19T12:14:28;102551.22;;;17.12;31.80
63111;BME280;49201;53.426;10.300;2023-04-19T12:17:04;102537.47;;;17.15;30.96
63111;BME280;49201;53.426;10.300;2023-04-19T12:19:33;102555.66;;;17.61;32.54
63111;BME280;49201;53.426;10.300;2023-04-19T12:22:29;102526.50;;;17.28;31.00
63111;BME280;49201;53.426;10.300;2023-04-19T12:24:54;102550.09;;;17.40;32.57
63111;BME280;49201;53.426;10.300;2023-04-19T12:27:20;102563.72;;;17.33;33.40
63111;BME280;49201;53.426;10.300;2023-04-19T12:29:45;102540.06;;;17.15;32.28
63111;BME280;49201;53.426;10.300;2023-04-19T12:32:11;102542.84;;;17.24;31.98
63111;BME280;49201;53.426;10.300;2023-04-19T12:34:37;102524.47;;;17.55;30.73
63111;BME280;49201;53.426;10.300;2023-04-19T12:37:02;102513.63;;;17.31;31.27
63111;BME280;49201;53.426;10.300;2023-04-19T12:39:29;102554.44;;;17.41;32.12
63111;BME280;49201;53.426;10.300;2023-04-19T12:41:55;102539.47;;;17.28;29.95
63111;BME280;49201;53.426;10.300;2023-04-19T12:44:20;102541.00;;;16.77;31.09
63111;BME280;49201;53.426;10.300;2023-04-19T12:46:46;102551.59;;;17.30;31.31
63111;BME280;49201;53.426;10.300;2023-04-19T12:49:12;102557.00;;;17.39;31.71
63111;BME280;49201;53.426;10.300;2023-04-19T12:51:37;102529.00;;;17.23;30.44
63111;BME280;49201;53.426;10.300;2023-04-19T12:54:03;102547.44;;;17.38;31.78
63111;BME280;49201;53.426;10.300;2023-04-19T12:56:28;102559.44;;;17.33;32.32
63111;BME280;49201;53.426;10.300;2023-04-19T12:58:54;102544.06;;;17.41;31.34
63111;BME280;49201;53.426;10.300;2023-04-19T13:01:19;102542.94;;;17.28;31.44
63111;BME280;49201;53.426;10.300;2023-04-19T13:03:44;102578.84;;;16.72;32.92
63111;BME280;49201;53.426;10.300;2023-04-19T13:06:10;102550.41;;;16.73;32.32
63111;BME280;49201;53.426;10.300;2023-04-19T13:08:39;102577.69;;;16.59;33.16
63111;BME280;49201;53.426;10.300;2023-04-19T13:11:04;102594.28;;;17.07;33.44
63111;BME280;49201;53.426;10.300;2023-04-19T13:13:30;102593.81;;;16.86;33.98
63111;BME280;49201;53.426;10.300;2023-04-19T13:15:55;102583.19;;;16.74;33.59
63111;BME280;49201;53.426;10.300;2023-04-19T13:18:21;102596.19;;;16.76;34.66
63111;BME280;49201;53.426;10.300;2023-04-19T13:20:46;102596.53;;;16.92;34.43
63111;BME280;49201;53.426;10.300;2023-04-19T13:23:12;102607.47;;;16.79;36.14
63111;BME280;49201;53.426;10.300;2023-04-19T13:25:37;102599.50;;;16.70;34.78
63111;BME280;49201;53.426;10.300;2023-04-19T13:28:03;102586.75;;;16.79;34.76
63111;BME280;49201;53.426;10.300;2023-04-19T13:30:28;102576.50;;;16.45;34.31
63111;BME280;49201;53.426;10.300;2023-04-19T13:32:54;102596.22;;;16.08;34.85
63111;BME280;49201;53.426;10.300;2023-04-19T13:35:19;102603.44;;;16.55;35.14
63111;BME280;49201;53.426;10.300;2023-04-19T13:37:45;102604.47;;;16.27;35.66
63111;BME280;49201;53.426;10.300;2023-04-19T13:40:12;102611.25;;;16.24;36.25
63111;BME280;49201;53.426;10.300;2023-04-19T13:42:37;102600.53;;;16.09;35.59
63111;BME280;49201;53.426;10.300;2023-04-19T13:45:03;102615.03;;;15.71;36.18